createdAt,value
2024-02-09T00:01:53.883Z,8.23
2024-02-09T00:04:20.603Z,8.23
2024-02-09T00:06:47.260Z,8.22
2024-02-09T00:09:13.962Z,8.19
2024-02-09T00:11:46.367Z,8.24
2024-02-09T00:14:13.954Z,8.26
2024-02-09T00:16:45.138Z,8.26
2024-02-09T00:19:13.242Z,8.26
2024-02-09T00:21:43.463Z,8.23
2024-02-09T00:24:12.430Z,8.23
2024-02-09T00:26:39.806Z,8.21
2024-02-09T00:29:13.650Z,8.22
2024-02-09T00:31:40.326Z,8.21
2024-02-09T00:34:06.989Z,8.21
2024-02-09T00:36:35.370Z,8.24
2024-02-09T00:39:01.957Z,8.21
2024-02-09T00:41:28.519Z,8.24
2024-02-09T00:43:55.052Z,8.21
2024-02-09T00:46:29.556Z,8.20
2024-02-09T00:49:03.860Z,8.23
2024-02-09T00:51:30.669Z,8.25
2024-02-09T00:53:57.215Z,8.24
2024-02-09T00:56:26.393Z,8.18
2024-02-09T00:58:52.959Z,8.19
2024-02-09T01:01:21.721Z,8.20
2024-02-09T01:03:48.650Z,8.19
2024-02-09T01:06:15.753Z,8.21
2024-02-09T01:08:47.068Z,8.20
2024-02-09T01:11:14.361Z,8.22
2024-02-09T01:13:59.659Z,8.26
2024-02-09T01:16:44.979Z,8.30
2024-02-09T01:19:29.900Z,8.38
2024-02-09T01:22:17.709Z,8.40
2024-02-09T01:25:02.761Z,8.42
2024-02-09T01:27:50.223Z,8.45
2024-02-09T01:30:35.069Z,8.46
2024-02-09T01:33:19.987Z,8.35
2024-02-09T01:36:07.454Z,8.34
2024-02-09T01:38:52.376Z,8.27
2024-02-09T01:41:39.695Z,8.32
2024-02-09T01:44:27.239Z,8.34
2024-02-09T01:47:15.588Z,8.37
2024-02-09T01:50:05.885Z,8.38
2024-02-09T01:52:52.014Z,8.41
2024-02-09T01:55:37.270Z,8.43
2024-02-09T01:58:22.706Z,8.44
2024-02-09T02:01:09.283Z,8.44
2024-02-09T02:03:55.046Z,8.44
2024-02-09T02:06:42.897Z,8.44
2024-02-09T02:09:27.773Z,8.42
2024-02-09T02:12:12.847Z,8.40
2024-02-09T02:14:58.280Z,8.38
2024-02-09T02:17:43.200Z,8.40
2024-02-09T02:20:30.857Z,8.39
2024-02-09T02:23:45.095Z,8.39
2024-02-09T02:26:30.528Z,8.39
2024-02-09T02:29:15.731Z,8.38
2024-02-09T02:32:03.315Z,8.38
2024-02-09T02:34:48.212Z,8.38
2024-02-09T02:37:33.575Z,8.38
2024-02-09T02:40:18.724Z,8.42
2024-02-09T02:42:47.312Z,8.40
2024-02-09T02:45:16.394Z,8.44
2024-02-09T02:48:02.995Z,8.39
2024-02-09T02:50:48.416Z,8.47
2024-02-09T02:53:35.994Z,8.49
2024-02-09T02:56:20.928Z,8.47
2024-02-09T02:59:05.871Z,8.46
2024-02-09T03:01:50.776Z,8.50
2024-02-09T03:04:22.842Z,8.43
2024-02-09T03:07:13.581Z,8.45
2024-02-09T03:09:43.340Z,8.44
2024-02-09T03:12:13.412Z,8.48
2024-02-09T03:14:41.175Z,8.46
2024-02-09T03:17:10.433Z,8.50
2024-02-09T03:19:37.450Z,8.49
2024-02-09T03:22:04.253Z,8.47
2024-02-09T03:24:33.055Z,8.46
2024-02-09T03:26:59.860Z,8.49
2024-02-09T03:29:26.487Z,8.47
2024-02-09T03:31:53.032Z,8.50
2024-02-09T03:34:19.908Z,8.50
2024-02-09T03:36:46.661Z,8.51
2024-02-09T03:39:13.254Z,8.49
2024-02-09T03:41:44.591Z,8.41
2024-02-09T03:44:13.387Z,8.50
2024-02-09T03:46:40.059Z,8.52
2024-02-09T03:49:12.443Z,8.55
2024-02-09T03:51:41.362Z,8.53
2024-02-09T03:54:08.172Z,8.50
2024-02-09T03:56:37.408Z,8.52
2024-02-09T03:59:07.717Z,8.51
2024-02-09T04:01:35.054Z,8.53
2024-02-09T04:04:01.944Z,8.53
2024-02-09T04:06:30.852Z,8.55
2024-02-09T04:09:00.606Z,8.55
2024-02-09T04:11:29.913Z,8.45
2024-02-09T04:13:56.713Z,8.51
2024-02-09T04:16:25.516Z,8.55
2024-02-09T04:18:54.363Z,8.55
2024-02-09T04:21:20.936Z,8.57
2024-02-09T04:23:48.368Z,8.57
2024-02-09T04:26:14.986Z,8.57
2024-02-09T04:28:46.667Z,8.58
2024-02-09T04:31:13.414Z,8.59
2024-02-09T04:33:43.887Z,8.58
2024-02-09T04:36:11.981Z,8.61
2024-02-09T04:38:42.212Z,8.62
2024-02-09T04:41:08.937Z,8.57
2024-02-09T04:43:35.509Z,8.61
2024-02-09T04:46:04.497Z,8.58
2024-02-09T04:48:36.067Z,8.58
2024-02-09T04:51:08.764Z,8.49
2024-02-09T04:53:37.758Z,8.43
2024-02-09T04:56:06.784Z,8.52
2024-02-09T04:58:33.400Z,8.39
2024-02-09T05:01:01.356Z,8.34
2024-02-09T05:03:30.288Z,8.43
2024-02-09T05:05:56.840Z,8.35
2024-02-09T05:08:24.964Z,8.42
2024-02-09T05:10:53.953Z,8.46
2024-02-09T05:13:20.725Z,8.46
2024-02-09T05:15:52.116Z,8.46
2024-02-09T05:18:23.281Z,8.55
2024-02-09T05:20:52.082Z,8.55
2024-02-09T05:23:19.006Z,8.46
2024-02-09T05:25:45.736Z,8.49
2024-02-09T05:28:12.415Z,8.46
2024-02-09T05:30:41.239Z,8.53
2024-02-09T05:33:12.142Z,8.51
2024-02-09T05:35:44.072Z,8.55
2024-02-09T05:38:14.379Z,8.55
2024-02-09T05:40:41.008Z,8.54
2024-02-09T05:43:07.619Z,8.57
2024-02-09T05:45:35.808Z,8.60
2024-02-09T05:48:02.401Z,8.59
2024-02-09T05:50:36.787Z,8.58
2024-02-09T05:53:08.781Z,8.56
2024-02-09T05:55:40.572Z,8.59
2024-02-09T05:58:07.315Z,8.57
2024-02-09T06:00:36.227Z,8.59
2024-02-09T06:03:03.829Z,8.58
2024-02-09T06:05:41.516Z,8.54
2024-02-09T06:08:11.390Z,8.57
2024-02-09T06:10:38.165Z,8.56
2024-02-09T06:13:05.138Z,8.57
2024-02-09T06:15:38.130Z,8.58
2024-02-09T06:18:07.121Z,8.56
2024-02-09T06:20:34.932Z,8.59
2024-02-09T06:23:03.029Z,8.56
2024-02-09T06:25:29.613Z,8.56
2024-02-09T06:27:59.612Z,8.57
2024-02-09T06:30:26.342Z,8.55
2024-02-09T06:32:56.486Z,8.55
2024-02-09T06:35:23.198Z,8.55
2024-02-09T06:37:54.097Z,8.54
2024-02-09T06:40:23.224Z,8.52
2024-02-09T06:42:49.993Z,8.52
2024-02-09T06:45:18.164Z,8.54
2024-02-09T06:47:47.055Z,8.52
2024-02-09T06:50:20.981Z,8.54
2024-02-09T06:52:49.537Z,8.55
2024-02-09T06:55:20.560Z,8.55
2024-02-09T06:57:49.944Z,8.57
2024-02-09T07:00:17.094Z,8.55
2024-02-09T07:02:48.924Z,8.57
2024-02-09T07:05:17.252Z,8.56
2024-02-09T07:07:46.578Z,8.55
2024-02-09T07:10:14.671Z,8.59
2024-02-09T07:12:44.057Z,8.57
2024-02-09T07:15:16.096Z,8.49
2024-02-09T07:17:45.113Z,8.23
2024-02-09T07:20:18.008Z,8.21
2024-02-09T07:22:47.579Z,8.36
2024-02-09T07:25:16.645Z,8.40
2024-02-09T07:27:43.335Z,8.43
2024-02-09T07:30:11.203Z,8.46
2024-02-09T07:32:40.137Z,8.46
2024-02-09T07:35:07.319Z,8.48
2024-02-09T07:37:36.446Z,8.48
2024-02-09T07:40:04.392Z,8.55
2024-02-09T07:42:31.143Z,8.55
2024-02-09T07:45:00.588Z,8.57
2024-02-09T07:47:28.609Z,8.50
2024-02-09T07:49:57.759Z,8.53
2024-02-09T07:52:29.673Z,8.37
2024-02-09T07:54:56.469Z,8.22
2024-02-09T07:57:23.034Z,8.38
2024-02-09T07:59:52.574Z,8.44
2024-02-09T08:02:20.108Z,8.49
2024-02-09T08:04:46.923Z,8.51
2024-02-09T08:07:15.435Z,8.53
2024-02-09T08:09:46.927Z,8.61
2024-02-09T08:12:15.748Z,8.63
2024-02-09T08:14:43.754Z,8.56
2024-02-09T08:17:12.734Z,8.61
2024-02-09T08:19:39.380Z,8.63
2024-02-09T08:22:08.489Z,8.65
2024-02-09T08:24:40.053Z,8.73
2024-02-09T08:27:09.754Z,8.79
2024-02-09T08:29:42.473Z,8.70
2024-02-09T08:32:09.408Z,8.79
2024-02-09T08:34:40.833Z,8.80
2024-02-09T08:37:12.019Z,8.80
2024-02-09T08:39:47.780Z,8.81
2024-02-09T08:42:14.961Z,8.91
2024-02-09T08:44:42.121Z,8.93
2024-02-09T08:47:11.444Z,8.91
2024-02-09T08:49:40.880Z,8.92
2024-02-09T08:52:07.538Z,8.94
2024-02-09T08:54:34.616Z,8.97
2024-02-09T08:57:01.149Z,8.96
2024-02-09T08:59:27.759Z,8.96
2024-02-09T09:01:55.149Z,8.92
2024-02-09T09:04:22.596Z,8.90
2024-02-09T09:06:51.649Z,8.95
2024-02-09T09:09:22.221Z,8.97
2024-02-09T09:11:51.068Z,8.93
2024-02-09T09:14:17.646Z,8.98
2024-02-09T09:16:45.581Z,9.03
2024-02-09T09:19:16.270Z,9.05
2024-02-09T09:21:45.909Z,9.08
2024-02-09T09:24:16.646Z,9.02
2024-02-09T09:26:50.550Z,9.01
2024-02-09T09:29:17.107Z,9.13
2024-02-09T09:31:43.762Z,9.14
2024-02-09T09:34:10.390Z,9.16
2024-02-09T09:36:36.942Z,9.22
2024-02-09T09:39:03.734Z,9.25
2024-02-09T09:41:34.642Z,9.33
2024-02-09T09:44:01.246Z,9.39
2024-02-09T09:46:31.794Z,9.43
2024-02-09T09:48:58.983Z,9.50
2024-02-09T09:51:32.030Z,9.58
2024-02-09T09:53:58.904Z,9.68
2024-02-09T09:56:26.915Z,9.77
2024-02-09T09:58:54.013Z,9.83
2024-02-09T10:01:23.083Z,9.91
2024-02-09T10:03:51.093Z,9.95
2024-02-09T10:06:24.075Z,9.88
2024-02-09T10:08:59.130Z,9.87
2024-02-09T10:11:25.783Z,9.85
2024-02-09T10:13:55.320Z,9.85
2024-02-09T10:16:24.510Z,9.86
2024-02-09T10:18:55.771Z,9.92
2024-02-09T10:21:24.792Z,9.89
2024-02-09T10:23:54.108Z,9.86
2024-02-09T10:26:22.144Z,9.86
2024-02-09T10:28:53.034Z,9.85
2024-02-09T10:31:23.762Z,9.86
2024-02-09T10:33:50.692Z,9.85
2024-02-09T10:36:17.919Z,9.89
2024-02-09T10:38:47.747Z,9.92
2024-02-09T10:41:18.236Z,9.91
2024-02-09T10:43:52.255Z,9.89
2024-02-09T10:46:19.824Z,9.94
2024-02-09T10:48:54.696Z,10.01
2024-02-09T10:51:28.681Z,10.04
2024-02-09T10:54:12.806Z,10.07
2024-02-09T10:56:40.942Z,10.05
2024-02-09T10:59:09.123Z,10.21
2024-02-09T11:01:39.173Z,10.31
2024-02-09T11:04:06.324Z,10.40
2024-02-09T11:09:01.984Z,10.53
2024-02-09T11:11:33.495Z,10.68
2024-02-09T11:14:11.334Z,10.44
2024-02-09T11:16:47.056Z,10.60
2024-02-09T11:19:19.088Z,10.63
2024-02-09T11:21:58.849Z,10.74
2024-02-09T11:24:29.010Z,10.79
2024-02-09T11:26:57.218Z,10.76
2024-02-09T11:29:23.986Z,10.76
2024-02-09T11:31:58.427Z,10.61
2024-02-09T11:34:27.074Z,10.49
2024-02-09T11:36:54.766Z,10.52
2024-02-09T11:39:23.622Z,10.42
2024-02-09T11:41:50.856Z,10.41
2024-02-09T11:44:21.260Z,10.40
2024-02-09T11:46:53.262Z,10.25
2024-02-09T11:49:25.201Z,10.34
2024-02-09T11:51:54.680Z,10.35
2024-02-09T11:54:22.761Z,10.37
2024-02-09T11:56:57.358Z,10.33
2024-02-09T11:59:24.013Z,10.33
2024-02-09T12:01:54.851Z,10.32
2024-02-09T12:04:25.792Z,10.18
2024-02-09T12:06:55.598Z,10.06
2024-02-09T12:09:24.464Z,10.16
2024-02-09T12:11:51.372Z,10.22
2024-02-09T12:14:18.159Z,10.07
2024-02-09T12:16:45.189Z,9.91
2024-02-09T12:19:12.218Z,9.93
2024-02-09T12:21:47.482Z,9.96
2024-02-09T12:24:14.105Z,9.82
2024-02-09T12:26:43.635Z,9.82
2024-02-09T12:29:16.647Z,9.97
2024-02-09T12:31:48.894Z,9.85
2024-02-09T12:34:18.637Z,9.95
2024-02-09T12:36:58.584Z,9.88
2024-02-09T12:39:26.538Z,9.87
2024-02-09T12:42:02.463Z,9.99
2024-02-09T12:44:31.221Z,10.04
2024-02-09T12:47:04.264Z,10.05
2024-02-09T12:49:38.604Z,10.04
2024-02-09T12:52:09.787Z,10.06
2024-02-09T12:54:41.482Z,10.07
2024-02-09T12:57:10.613Z,10.07
2024-02-09T12:59:41.319Z,10.14
2024-02-09T13:02:11.549Z,10.17
2024-02-09T13:04:38.978Z,10.13
2024-02-09T13:07:07.537Z,10.18
2024-02-09T13:09:35.004Z,10.22
2024-02-09T13:12:02.400Z,10.28
2024-02-09T13:14:31.826Z,10.31
2024-02-09T13:17:01.087Z,10.35
2024-02-09T13:19:30.369Z,10.34
2024-02-09T13:22:02.932Z,10.33
2024-02-09T13:24:29.628Z,10.25
2024-02-09T13:26:58.665Z,10.08
2024-02-09T13:29:27.617Z,10.03
2024-02-09T13:31:59.734Z,9.92
2024-02-09T13:34:31.497Z,9.91
2024-02-09T13:36:58.245Z,9.82
2024-02-09T13:39:27.896Z,9.83
2024-02-09T13:41:54.854Z,9.77
2024-02-09T13:44:21.445Z,9.75
2024-02-09T13:46:48.037Z,9.70
2024-02-09T13:49:14.672Z,9.58
2024-02-09T13:51:43.807Z,9.58
2024-02-09T13:54:14.960Z,9.56
2024-02-09T13:56:41.519Z,9.48
2024-02-09T13:59:08.078Z,9.64
2024-02-09T14:01:37.611Z,9.72
2024-02-09T14:04:06.933Z,9.81
2024-02-09T14:06:34.626Z,9.80
2024-02-09T14:09:01.359Z,9.89
2024-02-09T14:11:30.472Z,9.92
2024-02-09T14:13:59.223Z,9.94
2024-02-09T14:16:26.953Z,10.04
2024-02-09T14:18:53.619Z,10.07
2024-02-09T14:21:20.183Z,10.14
2024-02-09T14:23:46.716Z,10.14
2024-02-09T14:26:17.244Z,10.16
2024-02-09T14:28:43.931Z,10.06
2024-02-09T14:33:40.091Z,9.92
2024-02-09T14:36:09.773Z,10.08
2024-02-09T14:38:38.729Z,10.08
2024-02-09T14:41:11.703Z,10.06
2024-02-09T14:43:39.222Z,10.14
2024-02-09T14:46:10.858Z,9.88
2024-02-09T14:48:43.257Z,9.94
2024-02-09T14:51:12.340Z,9.96
2024-02-09T14:53:39.705Z,9.82
2024-02-09T14:56:08.506Z,9.83
2024-02-09T14:58:35.773Z,9.63
2024-02-09T15:01:04.878Z,9.73
2024-02-09T15:03:39.104Z,9.67
2024-02-09T15:06:15.431Z,9.63
2024-02-09T15:08:50.364Z,9.67
2024-02-09T15:11:24.609Z,9.62
2024-02-09T15:13:59.714Z,9.68
2024-02-09T15:16:26.606Z,9.53
2024-02-09T15:18:53.684Z,9.60
2024-02-09T15:21:20.353Z,9.63
2024-02-09T15:23:48.705Z,9.68
2024-02-09T15:26:18.165Z,9.71
2024-02-09T15:28:45.532Z,9.71
2024-02-09T15:31:12.359Z,9.70
2024-02-09T15:33:39.698Z,9.70
2024-02-09T15:36:07.162Z,9.74
2024-02-09T15:38:36.739Z,9.70
2024-02-09T15:41:06.216Z,9.71
2024-02-09T15:43:35.159Z,9.73
2024-02-09T15:46:06.608Z,9.64
2024-02-09T15:48:35.007Z,9.62
2024-02-09T15:51:04.332Z,9.64
2024-02-09T15:53:30.897Z,9.57
2024-02-09T15:56:02.151Z,9.53
2024-02-09T15:58:32.942Z,9.48
2024-02-09T16:00:59.964Z,9.40
2024-02-09T16:03:26.637Z,9.42
2024-02-09T16:05:57.088Z,9.39
2024-02-09T16:08:23.815Z,9.37
2024-02-09T16:10:51.465Z,9.39
2024-02-09T16:13:18.070Z,9.11
2024-02-09T16:15:49.278Z,9.06
2024-02-09T16:18:18.085Z,9.08
2024-02-09T16:20:44.657Z,9.16
2024-02-09T16:23:14.680Z,9.02
2024-02-09T16:25:50.065Z,9.13
2024-02-09T16:28:25.844Z,9.18
2024-02-09T16:30:54.962Z,9.18
2024-02-09T16:33:23.856Z,9.19
2024-02-09T16:35:52.707Z,8.91
2024-02-09T16:38:20.372Z,8.86
2024-02-09T16:40:49.634Z,8.80
2024-02-09T16:43:16.574Z,8.82
2024-02-09T16:45:44.040Z,8.87
2024-02-09T16:48:10.851Z,8.92
2024-02-09T16:50:41.013Z,8.95
2024-02-09T16:53:10.831Z,8.96
2024-02-09T16:55:40.520Z,8.99
2024-02-09T16:58:07.631Z,9.00
2024-02-09T17:00:37.575Z,8.97
2024-02-09T17:03:06.895Z,9.00
2024-02-09T17:05:35.937Z,9.01
2024-02-09T17:08:04.816Z,8.79
2024-02-09T17:10:31.584Z,8.81
2024-02-09T17:12:59.103Z,8.86
2024-02-09T17:15:25.680Z,8.84
2024-02-09T17:17:57.029Z,8.78
2024-02-09T17:20:25.889Z,8.79
2024-02-09T17:22:57.511Z,8.79
2024-02-09T17:25:24.610Z,8.79
2024-02-09T17:27:53.736Z,8.80
2024-02-09T17:30:20.346Z,8.72
2024-02-09T17:32:49.978Z,8.60
2024-02-09T17:35:16.627Z,8.63
2024-02-09T17:37:43.973Z,8.61
2024-02-09T17:40:10.853Z,8.65
2024-02-09T17:42:37.458Z,8.69
2024-02-09T17:45:05.180Z,8.71
2024-02-09T17:47:31.868Z,8.72
2024-02-09T17:49:58.470Z,8.77
2024-02-09T17:52:27.440Z,8.72
2024-02-09T17:54:56.430Z,8.76
2024-02-09T17:57:25.559Z,8.75
2024-02-09T17:59:54.669Z,8.74
2024-02-09T18:02:23.443Z,8.64
2024-02-09T18:04:50.184Z,8.46
2024-02-09T18:07:19.737Z,8.40
2024-02-09T18:09:46.418Z,8.49
2024-02-09T18:12:13.013Z,8.39
2024-02-09T18:14:39.630Z,8.41
2024-02-09T18:17:08.636Z,8.45
2024-02-09T18:19:35.443Z,8.47
2024-02-09T18:22:06.683Z,8.49
2024-02-09T18:24:38.684Z,8.45
2024-02-09T18:27:08.648Z,8.46
2024-02-09T18:29:35.250Z,8.47
2024-02-09T18:32:05.149Z,8.46
2024-02-09T18:34:34.469Z,8.47
2024-02-09T18:37:03.546Z,8.46
2024-02-09T18:39:30.117Z,8.36
2024-02-09T18:42:01.614Z,8.45
2024-02-09T18:44:30.658Z,8.41
2024-02-09T18:46:57.988Z,8.40
2024-02-09T18:49:29.236Z,8.41
2024-02-09T18:51:59.702Z,8.43
2024-02-09T18:54:26.463Z,8.46
2024-02-09T18:56:53.517Z,8.37
2024-02-09T18:59:22.523Z,8.33
2024-02-09T19:01:52.094Z,8.22
2024-02-09T19:04:19.188Z,8.30
2024-02-09T19:06:46.910Z,8.32
2024-02-09T19:09:14.377Z,8.34
2024-02-09T19:11:43.795Z,8.36
2024-02-09T19:14:10.775Z,8.38
2024-02-09T19:16:39.882Z,8.39
2024-02-09T19:19:12.398Z,8.42
2024-02-09T19:21:39.782Z,8.42
2024-02-09T19:24:08.624Z,8.40
2024-02-09T19:26:35.392Z,8.27
2024-02-09T19:29:04.480Z,8.14
2024-02-09T19:31:31.591Z,8.32
2024-02-09T19:33:58.480Z,8.16
2024-02-09T19:36:25.256Z,8.21
2024-02-09T19:38:51.841Z,8.23
2024-02-09T19:41:24.506Z,8.22
2024-02-09T19:43:53.740Z,8.23
2024-02-09T19:46:24.918Z,8.18
2024-02-09T19:48:53.096Z,8.06
2024-02-09T19:51:21.958Z,8.16
2024-02-09T19:53:50.924Z,8.20
2024-02-09T19:56:19.839Z,8.15
2024-02-09T19:58:46.645Z,8.22
2024-02-09T20:01:14.029Z,8.23
2024-02-09T20:03:43.677Z,8.17
2024-02-09T20:06:10.339Z,8.15
2024-02-09T20:08:39.980Z,8.19
2024-02-09T20:11:11.269Z,8.21
2024-02-09T20:13:37.806Z,8.24
2024-02-09T20:16:07.148Z,8.27
2024-02-09T20:18:33.726Z,8.27
2024-02-09T20:21:00.362Z,8.26
2024-02-09T20:23:28.030Z,8.16
2024-02-09T20:25:55.407Z,8.12
2024-02-09T20:28:24.629Z,8.06
2024-02-09T20:30:51.233Z,8.18
2024-02-09T20:33:19.589Z,8.20
2024-02-09T20:35:52.368Z,8.15
2024-02-09T20:38:22.130Z,8.13
2024-02-09T20:40:49.859Z,8.17
2024-02-09T20:43:19.454Z,8.19
2024-02-09T20:45:47.941Z,8.14
2024-02-09T20:48:15.582Z,8.19
2024-02-09T20:50:44.708Z,8.20
2024-02-09T20:53:13.078Z,8.26
2024-02-09T20:55:43.047Z,8.27
2024-02-09T20:58:11.909Z,8.21
2024-02-09T21:00:41.809Z,8.14
2024-02-09T21:03:09.663Z,8.21
2024-02-09T21:05:37.364Z,8.22
2024-02-09T21:08:05.806Z,8.24
2024-02-09T21:10:36.383Z,8.27
2024-02-09T21:13:08.129Z,8.30
2024-02-09T21:15:36.088Z,8.32
2024-02-09T21:18:02.941Z,8.31
2024-02-09T21:20:30.985Z,8.34
2024-02-09T21:23:00.265Z,8.39
2024-02-09T21:25:26.982Z,8.36
2024-02-09T21:27:53.785Z,8.39
2024-02-09T21:30:25.539Z,8.42
2024-02-09T21:32:57.865Z,8.45
2024-02-09T21:35:31.067Z,8.49
2024-02-09T21:38:02.952Z,8.48
2024-02-09T21:40:33.185Z,8.48
2024-02-09T21:43:06.239Z,8.52
2024-02-09T21:45:36.549Z,8.51
2024-02-09T21:48:07.646Z,8.52
2024-02-09T21:50:37.242Z,8.52
2024-02-09T21:53:04.723Z,8.49
2024-02-09T21:55:31.962Z,8.50
2024-02-09T21:58:02.440Z,8.51
2024-02-09T22:00:34.934Z,8.50
2024-02-09T22:03:04.927Z,8.42
2024-02-09T22:05:31.963Z,8.46
2024-02-09T22:07:58.633Z,8.42
2024-02-09T22:10:27.627Z,8.38
2024-02-09T22:12:57.188Z,8.37
2024-02-09T22:15:29.197Z,8.37
2024-02-09T22:17:55.883Z,8.37
2024-02-09T22:20:24.747Z,8.32
2024-02-09T22:22:54.651Z,8.27
2024-02-09T22:25:21.607Z,8.32
2024-02-09T22:27:54.019Z,8.31
2024-02-09T22:30:21.081Z,8.35
2024-02-09T22:32:47.853Z,8.35
2024-02-09T22:35:19.413Z,8.30
2024-02-09T22:37:46.136Z,8.35
2024-02-09T22:40:16.037Z,8.34
2024-02-09T22:42:43.108Z,8.36
2024-02-09T22:45:13.226Z,8.37
2024-02-09T22:47:40.764Z,8.34
2024-02-09T22:50:13.748Z,8.36
2024-02-09T22:52:41.715Z,8.34
2024-02-09T22:55:08.515Z,8.24
2024-02-09T22:57:35.431Z,7.96
2024-02-09T23:00:17.442Z,8.01
2024-02-09T23:02:48.327Z,8.01
2024-02-09T23:05:17.732Z,8.04
2024-02-09T23:07:45.482Z,8.05
2024-02-09T23:10:13.142Z,8.03
2024-02-09T23:12:41.914Z,8.02
2024-02-09T23:15:17.735Z,8.00
2024-02-09T23:17:47.258Z,7.95
2024-02-09T23:20:14.786Z,8.02
2024-02-09T23:22:41.536Z,8.07
2024-02-09T23:25:08.663Z,8.10
2024-02-09T23:27:37.764Z,8.16
2024-02-09T23:30:11.560Z,8.19
2024-02-09T23:32:39.838Z,8.21
2024-02-09T23:35:09.410Z,8.10
2024-02-09T23:37:36.652Z,8.13
2024-02-09T23:40:03.392Z,8.13
2024-02-09T23:42:32.783Z,8.17
2024-02-09T23:45:03.053Z,8.19
2024-02-09T23:47:29.793Z,8.22
2024-02-09T23:49:59.226Z,8.26
2024-02-09T23:52:30.364Z,8.26
2024-02-09T23:54:56.978Z,8.19
2024-02-09T23:57:23.575Z,8.22
2024-02-09T23:59:54.975Z,8.18
